Terminal Aerodrome Forecast
Issued by NWS

Home | Current Version | Previous Version | Text Only | Print | Product List | Glossary On
Versions: 1 2 3 4 5 6 7 8 9 10 11 12 13 14 15 16 17 18
000
FTUS41 KBOX 010526
TAFFMH
TAF
KFMH 010526Z 0106/0206 00000KT P6SM SCT200
     FM011300 13005KT P6SM OVC110
     FM011600 14008KT P6SM VCSH OVC080
     FM012100 14007KT 6SM -RA OVC060
     FM020200 10006KT 4SM -RA OVC035
     FM020500 08006KT P6SM VCSH OVC020=

USA.gov is the U.S. government's official web portal to all federal, state and local government web resources and services.